createdAt,value
2018-07-23T00:02:02.238Z,98537.60
2018-07-23T00:04:30.790Z,98545.28
2018-07-23T00:06:59.321Z,98551.45
2018-07-23T00:09:27.816Z,98548.50
2018-07-23T00:11:56.368Z,98554.12
2018-07-23T00:14:24.907Z,98556.36
2018-07-23T00:16:53.660Z,98549.58
2018-07-23T00:19:22.243Z,98543.18
2018-07-23T00:21:50.807Z,98547.27
2018-07-23T00:24:19.314Z,98537.85
2018-07-23T00:26:47.814Z,98546.73
2018-07-23T00:29:16.298Z,98540.78
2018-07-23T00:31:44.794Z,98535.59
2018-07-23T00:34:13.247Z,98534.02
2018-07-23T00:36:41.888Z,98534.53
2018-07-23T00:39:10.677Z,98534.40
2018-07-23T00:41:39.257Z,98537.78
2018-07-23T00:44:07.894Z,98535.73
2018-07-23T00:46:36.465Z,98534.61
2018-07-23T00:49:05.423Z,98535.00
2018-07-23T00:51:34.081Z,98536.05
2018-07-23T00:54:02.590Z,98527.94
2018-07-23T00:56:31.146Z,98533.20
2018-07-23T00:58:59.746Z,98530.02
2018-07-23T01:01:28.342Z,98526.27
2018-07-23T01:03:56.899Z,98523.27
2018-07-23T01:06:25.601Z,98528.73
2018-07-23T01:08:54.167Z,98527.03
2018-07-23T01:11:22.731Z,98531.10
2018-07-23T01:13:51.532Z,98532.47
2018-07-23T01:16:20.047Z,98527.58
2018-07-23T01:18:48.577Z,98528.09
2018-07-23T01:21:17.360Z,98529.09
2018-07-23T01:23:46.086Z,98528.56
2018-07-23T01:26:14.562Z,98528.09
2018-07-23T01:28:43.165Z,98525.39
2018-07-23T01:31:11.774Z,98526.27
2018-07-23T01:33:40.305Z,98530.02
2018-07-23T01:36:09.229Z,98532.38
2018-07-23T01:38:37.785Z,98528.88
2018-07-23T01:41:06.797Z,98533.14
2018-07-23T01:43:35.514Z,98532.30
2018-07-23T01:46:04.306Z,98532.63
2018-07-23T01:48:32.931Z,98526.18
2018-07-23T01:51:01.712Z,98528.89
2018-07-23T01:53:30.262Z,98530.24
2018-07-23T02:02:42.453Z,98529.37
2018-07-23T02:05:10.954Z,98534.46
2018-07-23T02:07:39.529Z,98537.00
2018-07-23T02:10:08.022Z,98533.30
2018-07-23T02:12:38.110Z,98527.25
2018-07-23T02:15:06.615Z,98531.46
2018-07-23T02:17:35.421Z,98529.14
2018-07-23T02:20:04.946Z,98527.59
2018-07-23T02:22:33.633Z,98526.42
2018-07-23T02:25:02.538Z,98531.67
2018-07-23T02:27:31.069Z,98535.56
2018-07-23T02:29:59.519Z,98536.91
2018-07-23T02:32:28.115Z,98532.17
2018-07-23T02:34:56.580Z,98534.05
2018-07-23T02:37:25.814Z,98531.50
2018-07-23T02:39:54.271Z,98533.03
2018-07-23T02:42:22.826Z,98535.89
2018-07-23T02:44:51.723Z,98539.63
2018-07-23T02:47:20.269Z,98538.27
2018-07-23T02:49:49.584Z,98543.02
2018-07-23T02:52:18.343Z,98541.66
2018-07-23T02:54:47.071Z,98538.28
2018-07-23T02:57:15.668Z,98544.52
2018-07-23T02:59:44.235Z,98543.87
2018-07-23T03:02:12.860Z,98540.30
2018-07-23T03:04:41.419Z,98541.81
2018-07-23T03:07:09.978Z,98545.87
2018-07-23T03:09:38.658Z,98543.34
2018-07-23T03:12:07.214Z,98544.70
2018-07-23T03:14:35.705Z,98546.06
2018-07-23T03:17:04.372Z,98550.60
2018-07-23T03:19:33.271Z,98548.77
2018-07-23T03:22:01.788Z,98562.45
2018-07-23T03:24:30.366Z,98558.56
2018-07-23T03:26:58.890Z,98561.58
2018-07-23T03:29:28.285Z,98562.42
2018-07-23T03:31:56.942Z,98569.54
2018-07-23T03:34:25.610Z,98563.62
2018-07-23T03:36:54.168Z,98568.02
2018-07-23T03:39:22.693Z,98568.35
2018-07-23T03:41:51.334Z,98572.71
2018-07-23T03:44:19.843Z,98582.17
2018-07-23T03:46:48.754Z,98579.30
2018-07-23T03:49:17.386Z,98581.17
2018-07-23T03:51:45.909Z,98580.48
2018-07-23T03:54:14.530Z,98580.83
2018-07-23T03:56:43.363Z,98588.27
2018-07-23T03:59:11.876Z,98584.22
2018-07-23T04:01:40.538Z,98587.09
2018-07-23T04:04:09.249Z,98590.29
2018-07-23T04:06:37.904Z,98583.02
2018-07-23T04:09:08.709Z,98589.28
2018-07-23T04:11:37.195Z,98593.50
2018-07-23T04:14:06.169Z,98603.45
2018-07-23T04:16:34.971Z,98601.95
2018-07-23T04:19:03.521Z,98602.62
2018-07-23T04:21:32.259Z,98603.97
2018-07-23T04:24:00.783Z,98606.83
2018-07-23T04:26:29.371Z,98611.56
2018-07-23T04:28:58.113Z,98606.84
2018-07-23T04:31:26.598Z,98609.05
2018-07-23T04:33:55.094Z,98608.88
2018-07-23T04:36:23.575Z,98619.02
2018-07-23T04:38:52.134Z,98617.01
2018-07-23T04:41:20.643Z,98619.70
2018-07-23T04:43:49.145Z,98623.08
2018-07-23T04:46:17.750Z,98617.69
2018-07-23T04:48:46.355Z,98621.89
2018-07-23T04:51:14.861Z,98623.25
2018-07-23T04:53:43.447Z,98617.84
2018-07-23T04:56:11.961Z,98622.06
2018-07-23T04:58:40.380Z,98626.80
2018-07-23T05:01:08.924Z,98630.02
2018-07-23T05:03:37.459Z,98627.48
2018-07-23T05:06:05.997Z,98633.22
2018-07-23T05:08:34.534Z,98636.60
2018-07-23T05:11:03.139Z,98636.61
2018-07-23T05:13:31.702Z,98638.95
2018-07-23T05:16:00.273Z,98641.02
2018-07-23T05:18:28.754Z,98638.83
2018-07-23T05:20:57.291Z,98641.34
2018-07-23T05:23:25.702Z,98642.02
2018-07-23T05:25:54.223Z,98646.58
2018-07-23T05:28:22.702Z,98643.53
2018-07-23T05:30:51.373Z,98645.70
2018-07-23T05:33:19.856Z,98647.38
2018-07-23T05:35:48.447Z,98648.19
2018-07-23T05:38:17.160Z,98650.73
2018-07-23T05:40:45.723Z,98654.92
2018-07-23T05:43:14.194Z,98658.66
2018-07-23T05:45:42.770Z,98656.44
2018-07-23T05:48:11.235Z,98659.47
2018-07-23T05:50:39.695Z,98657.23
2018-07-23T05:53:08.374Z,98665.17
2018-07-23T05:55:36.893Z,98667.23
2018-07-23T05:58:05.553Z,98667.03
2018-07-23T06:00:34.075Z,98662.45
2018-07-23T06:03:02.569Z,98668.34
2018-07-23T06:05:31.346Z,98668.97
2018-07-23T06:07:59.874Z,98674.28
2018-07-23T06:10:28.431Z,98675.73
2018-07-23T06:12:56.931Z,98681.39
2018-07-23T06:15:25.611Z,98684.39
2018-07-23T06:17:54.246Z,98683.64
2018-07-23T06:20:22.756Z,98682.93
2018-07-23T06:22:51.381Z,98684.52
2018-07-23T06:25:19.925Z,98687.12
2018-07-23T06:27:48.406Z,98690.72
2018-07-23T06:30:16.896Z,98697.57
2018-07-23T06:32:45.438Z,98696.36
2018-07-23T06:35:14.070Z,98696.50
2018-07-23T06:37:42.740Z,98699.55
2018-07-23T06:40:11.270Z,98701.52
2018-07-23T06:42:39.964Z,98696.34
2018-07-23T06:45:08.394Z,98697.27
2018-07-23T06:47:36.928Z,98693.94
2018-07-23T06:50:05.483Z,98692.13
2018-07-23T06:52:34.088Z,98692.23
2018-07-23T06:55:02.612Z,98693.70
2018-07-23T06:57:31.176Z,98697.55
2018-07-23T06:59:59.705Z,98697.23
2018-07-23T07:02:28.198Z,98693.68
2018-07-23T07:04:57.690Z,98697.29
2018-07-23T07:07:26.187Z,98696.20
2018-07-23T07:09:54.734Z,98698.42
2018-07-23T07:12:23.237Z,98688.16
2018-07-23T07:14:51.880Z,98696.66
2018-07-23T07:17:20.610Z,98697.39
2018-07-23T07:19:49.246Z,98695.44
2018-07-23T07:22:17.810Z,98694.11
2018-07-23T07:24:46.527Z,98702.99
2018-07-23T07:27:15.148Z,98691.77
2018-07-23T07:29:43.675Z,98693.22
2018-07-23T07:32:12.198Z,98702.17
2018-07-23T07:34:40.770Z,98698.98
2018-07-23T07:37:10.281Z,98698.03
2018-07-23T07:39:38.769Z,98702.97
2018-07-23T07:42:07.296Z,98701.20
2018-07-23T07:44:36.158Z,98700.19
2018-07-23T07:47:05.110Z,98699.05
2018-07-23T07:49:33.958Z,98698.11
2018-07-23T07:52:02.447Z,98702.03
2018-07-23T07:54:30.942Z,98698.30
2018-07-23T07:56:59.855Z,98698.68
2018-07-23T07:59:28.683Z,98695.16
2018-07-23T08:01:57.186Z,98706.42
2018-07-23T08:04:25.698Z,98702.53
2018-07-23T08:06:54.554Z,98708.71
2018-07-23T08:09:23.246Z,98705.03
2018-07-23T08:11:51.784Z,98704.53
2018-07-23T08:14:20.314Z,98711.47
2018-07-23T08:16:48.831Z,98705.37
2018-07-23T08:19:17.330Z,98701.02
2018-07-23T08:21:45.867Z,98705.00
2018-07-23T08:24:14.430Z,98703.75
2018-07-23T08:26:42.990Z,98713.02
2018-07-23T08:29:11.616Z,98707.98
2018-07-23T08:31:40.145Z,98705.67
2018-07-23T08:34:08.842Z,98705.98
2018-07-23T08:36:37.786Z,98702.00
2018-07-23T08:39:09.408Z,98710.49
2018-07-23T08:41:37.977Z,98701.56
2018-07-23T08:44:07.095Z,98703.48
2018-07-23T08:46:35.751Z,98705.53
2018-07-23T08:49:05.075Z,98700.36
2018-07-23T08:51:34.323Z,98698.00
2018-07-23T08:54:02.799Z,98696.77
2018-07-23T08:56:31.333Z,98704.06
2018-07-23T08:58:59.902Z,98701.03
2018-07-23T09:01:28.497Z,98702.20
2018-07-23T09:03:57.711Z,98695.80
2018-07-23T09:06:26.829Z,98694.89
2018-07-23T09:08:55.411Z,98691.87
2018-07-23T09:11:23.950Z,98695.67
2018-07-23T09:13:53.714Z,98704.08
2018-07-23T09:16:22.199Z,98698.02
2018-07-23T09:18:50.712Z,98702.84
2018-07-23T09:21:19.330Z,98706.80
2018-07-23T09:23:48.003Z,98702.64
2018-07-23T09:26:16.698Z,98700.59
2018-07-23T09:28:45.304Z,98701.42
2018-07-23T09:31:13.975Z,98701.45
2018-07-23T09:33:42.486Z,98699.66
2018-07-23T09:36:10.979Z,98697.61
2018-07-23T09:38:39.605Z,98699.98
2018-07-23T09:41:08.372Z,98697.64
2018-07-23T09:43:37.451Z,98696.59
2018-07-23T09:46:06.137Z,98698.47
2018-07-23T09:48:34.615Z,98701.23
2018-07-23T09:51:03.438Z,98696.35
2018-07-23T09:53:32.051Z,98691.73
2018-07-23T09:56:00.598Z,98682.63
2018-07-23T09:58:29.450Z,98681.63
2018-07-23T10:01:03.433Z,98679.69
2018-07-23T10:03:31.957Z,98686.03
2018-07-23T10:06:00.415Z,98677.88
2018-07-23T10:08:29.883Z,98680.30
2018-07-23T10:10:58.635Z,98673.23
2018-07-23T10:13:27.098Z,98669.73
2018-07-23T10:15:55.596Z,98670.69
2018-07-23T10:18:24.155Z,98665.44
2018-07-23T10:20:52.911Z,98667.82
2018-07-23T10:23:21.666Z,98664.58
2018-07-23T10:25:51.219Z,98665.14
2018-07-23T10:28:19.768Z,98662.37
2018-07-23T10:30:48.238Z,98652.67
2018-07-23T10:33:16.786Z,98644.61
2018-07-23T10:35:45.553Z,98649.92
2018-07-23T10:38:14.241Z,98649.95
2018-07-23T10:40:42.919Z,98655.73
2018-07-23T10:43:11.448Z,98642.73
2018-07-23T10:45:40.037Z,98647.95
2018-07-23T10:48:08.610Z,98647.19
2018-07-23T10:50:37.347Z,98647.39
2018-07-23T10:53:05.842Z,98643.78
2018-07-23T10:55:34.323Z,98644.09
2018-07-23T10:58:02.868Z,98646.66
2018-07-23T11:00:32.834Z,98637.48
2018-07-23T11:03:01.425Z,98632.45
2018-07-23T11:05:30.087Z,98631.75
2018-07-23T11:07:58.587Z,98635.08
2018-07-23T11:10:27.157Z,98628.77
2018-07-23T11:12:55.638Z,98632.56
2018-07-23T11:15:24.411Z,98632.68
2018-07-23T11:17:53.093Z,98636.94
2018-07-23T11:20:21.687Z,98631.07
2018-07-23T11:22:50.287Z,98635.47
2018-07-23T11:25:39.178Z,98634.88
2018-07-23T11:27:47.470Z,98631.27
2018-07-23T11:30:16.022Z,98630.61
2018-07-23T11:32:44.679Z,98629.94
2018-07-23T11:35:13.157Z,98624.24
2018-07-23T11:37:41.786Z,98628.22
2018-07-23T11:40:10.263Z,98624.53
2018-07-23T11:42:38.864Z,98625.69
2018-07-23T11:45:07.363Z,98621.16
2018-07-23T11:47:35.944Z,98622.52
2018-07-23T11:50:04.524Z,98619.57
2018-07-23T11:52:33.090Z,98621.60
2018-07-23T11:55:01.701Z,98623.91
2018-07-23T11:57:30.231Z,98617.29
2018-07-23T11:59:58.724Z,98621.44
2018-07-23T12:02:27.441Z,98617.65
2018-07-23T12:04:56.013Z,98615.89
2018-07-23T12:07:24.659Z,98613.89
2018-07-23T12:09:53.141Z,98616.08
2018-07-23T12:12:21.654Z,98613.94
2018-07-23T12:14:50.686Z,98614.30
2018-07-23T12:17:19.227Z,98622.90
2018-07-23T12:19:47.961Z,98614.76
2018-07-23T12:22:16.549Z,98617.53
2018-07-23T12:24:45.242Z,98612.75
2018-07-23T12:27:13.746Z,98611.66
2018-07-23T12:29:42.362Z,98612.66
2018-07-23T12:32:10.910Z,98617.46
2018-07-23T12:34:39.419Z,98613.25
2018-07-23T12:37:07.960Z,98611.94
2018-07-23T12:39:36.806Z,98619.05
2018-07-23T12:42:05.382Z,98615.24
2018-07-23T12:44:33.841Z,98609.99
2018-07-23T12:47:03.338Z,98610.91
2018-07-23T12:49:31.838Z,98600.77
2018-07-23T12:52:00.333Z,98604.30
2018-07-23T12:54:28.829Z,98597.28
2018-07-23T12:56:57.601Z,98594.95
2018-07-23T12:59:26.483Z,98594.88
2018-07-23T13:01:55.003Z,98589.31
2018-07-23T13:04:23.485Z,98596.05
2018-07-23T13:06:52.017Z,98587.51
2018-07-23T13:09:20.642Z,98578.59
2018-07-23T13:11:49.099Z,98585.84
2018-07-23T13:14:17.679Z,98587.53
2018-07-23T13:16:46.267Z,98588.90
2018-07-23T13:19:14.858Z,98584.76
2018-07-23T13:21:43.449Z,98582.19
2018-07-23T13:24:12.190Z,98590.30
2018-07-23T13:26:40.713Z,98589.73
2018-07-23T13:29:09.485Z,98593.49
2018-07-23T13:31:38.049Z,98594.03
2018-07-23T13:34:06.658Z,98593.51
2018-07-23T13:36:35.166Z,98594.52
2018-07-23T13:39:03.817Z,98588.41
2018-07-23T13:41:32.362Z,98593.98
2018-07-23T13:44:01.127Z,98602.73
2018-07-23T13:46:29.623Z,98602.71
2018-07-23T13:48:58.218Z,98590.53
2018-07-23T13:51:26.806Z,98593.66
2018-07-23T13:53:55.503Z,98594.55
2018-07-23T13:56:24.093Z,98593.14
2018-07-23T13:58:52.742Z,98592.78
2018-07-23T14:01:21.345Z,98584.48
2018-07-23T14:03:50.196Z,98584.81
2018-07-23T14:06:18.697Z,98581.34
2018-07-23T14:08:47.460Z,98585.80
2018-07-23T14:11:16.071Z,98576.03
2018-07-23T14:13:44.890Z,98581.27
2018-07-23T14:16:13.386Z,98576.77
2018-07-23T14:18:42.002Z,98576.69
2018-07-23T14:21:10.543Z,98573.38
2018-07-23T14:23:39.041Z,98569.85
2018-07-23T14:26:07.600Z,98576.80
2018-07-23T14:28:36.128Z,98574.05
2018-07-23T14:31:04.585Z,98572.47
2018-07-23T14:33:33.068Z,98566.34
2018-07-23T14:36:01.665Z,98566.34
2018-07-23T14:38:30.321Z,98568.81
2018-07-23T14:40:58.839Z,98564.05
2018-07-23T14:43:27.575Z,98566.60
2018-07-23T14:45:56.419Z,98564.20
2018-07-23T14:48:24.878Z,98557.87
2018-07-23T14:50:53.836Z,98557.48
2018-07-23T14:53:23.042Z,98550.31
2018-07-23T14:55:51.759Z,98544.35
2018-07-23T14:58:20.425Z,98542.34
2018-07-23T15:00:48.983Z,98539.80
2018-07-23T15:03:17.624Z,98530.28
2018-07-23T15:05:46.130Z,98529.37
2018-07-23T15:08:14.710Z,98531.51
2018-07-23T15:10:43.495Z,98529.92
2018-07-23T15:13:12.275Z,98523.83
2018-07-23T15:15:40.970Z,98519.47
2018-07-23T15:18:09.526Z,98528.19
2018-07-23T15:20:38.067Z,98522.89
2018-07-23T15:23:07.055Z,98524.84
2018-07-23T15:25:35.667Z,98530.17
2018-07-23T15:28:04.755Z,98527.81
2018-07-23T15:30:33.287Z,98527.14
2018-07-23T15:33:01.790Z,98527.08
2018-07-23T15:35:30.349Z,98522.37
2018-07-23T15:37:59.299Z,98526.66
2018-07-23T15:40:27.886Z,98521.23
2018-07-23T15:42:56.408Z,98519.03
2018-07-23T15:45:25.022Z,98520.95
2018-07-23T15:47:53.526Z,98527.67
2018-07-23T15:50:22.054Z,98520.76
2018-07-23T15:52:50.562Z,98515.30
2018-07-23T15:55:19.196Z,98509.20
2018-07-23T15:57:47.754Z,98515.25
2018-07-23T16:00:16.377Z,98509.47
2018-07-23T16:02:45.125Z,98510.86
2018-07-23T16:05:13.722Z,98503.84
2018-07-23T16:07:42.366Z,98510.00
2018-07-23T16:10:10.838Z,98503.76
2018-07-23T16:12:39.330Z,98505.19
2018-07-23T16:15:08.585Z,98505.71
2018-07-23T16:17:37.125Z,98504.31
2018-07-23T16:20:06.226Z,98502.89
2018-07-23T16:22:35.046Z,98492.72
2018-07-23T16:25:03.662Z,98493.70
2018-07-23T16:27:32.166Z,98493.58
2018-07-23T16:30:00.937Z,98496.38
2018-07-23T16:32:29.697Z,98493.59
2018-07-23T16:34:58.206Z,98496.80
2018-07-23T16:37:26.934Z,98503.56
2018-07-23T16:39:55.518Z,98501.28
2018-07-23T16:42:24.142Z,98494.61
2018-07-23T16:44:52.721Z,98491.27
2018-07-23T16:47:21.225Z,98489.95
2018-07-23T16:49:49.859Z,98484.81
2018-07-23T16:52:18.488Z,98489.37
2018-07-23T16:54:47.266Z,98488.96
2018-07-23T16:57:15.734Z,98490.62
2018-07-23T16:59:44.292Z,98483.52
2018-07-23T17:02:12.858Z,98492.21
2018-07-23T17:04:41.482Z,98489.20
2018-07-23T17:07:09.982Z,98487.67
2018-07-23T17:09:38.648Z,98490.34
2018-07-23T17:12:07.263Z,98488.59
2018-07-23T17:14:36.833Z,98484.67
2018-07-23T17:17:05.681Z,98483.83
2018-07-23T17:19:34.558Z,98484.94
2018-07-23T17:22:03.142Z,98484.05
2018-07-23T17:24:31.757Z,98483.14
2018-07-23T17:27:00.334Z,98493.02
2018-07-23T17:29:29.114Z,98486.34
2018-07-23T17:31:57.670Z,98483.90
2018-07-23T17:34:26.149Z,98484.65
2018-07-23T17:36:54.686Z,98475.84
2018-07-23T17:39:23.174Z,98471.84
2018-07-23T17:41:51.868Z,98468.00
2018-07-23T17:44:20.462Z,98468.31
2018-07-23T17:46:49.113Z,98465.36
2018-07-23T17:49:17.876Z,98470.23
2018-07-23T17:51:46.427Z,98469.51
2018-07-23T17:54:15.238Z,98470.31
2018-07-23T17:56:43.811Z,98473.80
2018-07-23T17:59:12.447Z,98465.72
2018-07-23T18:01:41.181Z,98472.47
2018-07-23T18:04:09.805Z,98485.09
2018-07-23T18:06:38.554Z,98478.24
2018-07-23T18:09:09.933Z,98472.96
2018-07-23T18:11:38.789Z,98479.11
2018-07-23T18:14:07.527Z,98473.13
2018-07-23T18:16:36.654Z,98474.17
2018-07-23T18:19:05.160Z,98473.50
2018-07-23T18:21:33.780Z,98474.22
2018-07-23T18:24:06.594Z,98475.69
2018-07-23T18:26:35.485Z,98476.70
2018-07-23T18:29:04.105Z,98472.05
2018-07-23T18:31:32.759Z,98470.94
2018-07-23T18:34:01.223Z,98478.84
2018-07-23T18:36:30.118Z,98480.51
2018-07-23T18:38:58.590Z,98479.98
2018-07-23T18:41:27.081Z,98475.66
2018-07-23T18:43:55.546Z,98485.28
2018-07-23T18:46:24.145Z,98490.87
2018-07-23T18:50:00.563Z,98490.36
2018-07-23T18:52:30.169Z,98493.52
2018-07-23T18:55:00.313Z,98488.12
2018-07-23T18:57:28.822Z,98494.76
2018-07-23T18:59:57.385Z,98493.28
2018-07-23T19:02:25.933Z,98495.91
2018-07-23T19:04:54.502Z,98504.03
2018-07-23T19:07:22.987Z,98498.48
2018-07-23T19:09:51.622Z,98502.13
2018-07-23T19:12:20.386Z,98504.42
2018-07-23T19:14:48.942Z,98500.09
2018-07-23T19:17:17.542Z,98497.64
2018-07-23T19:19:46.126Z,98502.07
2018-07-23T19:22:14.749Z,98502.47
2018-07-23T19:24:43.247Z,98505.72
2018-07-23T19:27:12.198Z,98504.06
2018-07-23T19:29:40.718Z,98506.91
2018-07-23T19:32:09.246Z,98497.41
2018-07-23T19:34:37.979Z,98495.87
2018-07-23T19:37:06.813Z,98510.83
2018-07-23T19:39:35.427Z,98509.58
2018-07-23T19:42:04.335Z,98512.77
2018-07-23T19:44:32.867Z,98508.55
2018-07-23T19:47:01.353Z,98509.50
2018-07-23T19:49:29.799Z,98511.29
2018-07-23T19:51:58.415Z,98510.16
2018-07-23T19:54:26.853Z,98516.70
2018-07-23T19:56:55.480Z,98517.14
2018-07-23T19:59:23.949Z,98517.44
2018-07-23T20:01:52.919Z,98528.34
2018-07-23T20:04:23.302Z,98514.34
2018-07-23T20:06:52.133Z,98518.44
2018-07-23T20:09:20.624Z,98521.97
2018-07-23T20:11:49.186Z,98519.70
2018-07-23T20:14:17.731Z,98524.16
2018-07-23T20:16:46.294Z,98528.56
2018-07-23T20:19:14.835Z,98527.84
2018-07-23T20:21:43.675Z,98523.69
2018-07-23T20:24:12.302Z,98522.56
2018-07-23T20:26:40.871Z,98527.50
2018-07-23T20:29:09.834Z,98532.13
2018-07-23T20:31:38.510Z,98532.99
2018-07-23T20:34:07.005Z,98533.42
2018-07-23T20:36:35.567Z,98532.89
2018-07-23T20:39:05.784Z,98537.11
2018-07-23T20:41:34.294Z,98535.42
2018-07-23T20:44:02.966Z,98537.34
2018-07-23T20:46:31.626Z,98535.73
2018-07-23T20:49:00.142Z,98534.27
2018-07-23T20:51:28.849Z,98533.22
2018-07-23T20:53:57.414Z,98536.58
2018-07-23T20:56:25.977Z,98530.17
2018-07-23T20:58:54.602Z,98537.09
2018-07-23T21:01:23.090Z,98536.25
2018-07-23T21:03:52.051Z,98535.30
2018-07-23T21:06:20.642Z,98535.09
2018-07-23T21:08:49.213Z,98540.66
2018-07-23T21:11:17.781Z,98531.73
2018-07-23T21:13:46.386Z,98539.28
2018-07-23T21:16:14.998Z,98533.19
2018-07-23T21:18:43.520Z,98536.56
2018-07-23T21:21:12.266Z,98532.97
2018-07-23T21:23:40.771Z,98534.76
2018-07-23T21:26:09.241Z,98534.00
2018-07-23T21:28:37.769Z,98532.03
2018-07-23T21:31:06.629Z,98526.71
2018-07-23T21:33:35.262Z,98528.91
2018-07-23T21:36:03.950Z,98532.05
2018-07-23T21:38:32.476Z,98527.63
2018-07-23T21:41:00.965Z,98524.91
2018-07-23T21:43:29.557Z,98526.61
2018-07-23T21:45:57.990Z,98522.94
2018-07-23T21:48:26.562Z,98523.42
2018-07-23T21:50:55.218Z,98524.68
2018-07-23T21:53:23.679Z,98519.64
2018-07-23T21:55:52.312Z,98522.78
2018-07-23T21:58:20.885Z,98518.28
2018-07-23T22:00:49.470Z,98518.28
2018-07-23T22:03:18.026Z,98515.03
2018-07-23T22:05:46.555Z,98515.30
2018-07-23T22:08:15.086Z,98515.19
2018-07-23T22:10:44.187Z,98514.58
2018-07-23T22:13:12.715Z,98516.70
2018-07-23T22:15:41.322Z,98512.27
2018-07-23T22:18:09.969Z,98513.52
2018-07-23T22:20:38.556Z,98515.26
2018-07-23T22:23:07.117Z,98511.47
2018-07-23T22:25:35.611Z,98508.77
2018-07-23T22:28:04.114Z,98509.41
2018-07-23T22:30:32.818Z,98508.16
2018-07-23T22:33:01.298Z,98507.58
2018-07-23T22:35:29.891Z,98511.36
2018-07-23T22:37:58.530Z,98509.73
2018-07-23T22:40:27.057Z,98507.20
2018-07-23T22:42:55.819Z,98507.59
2018-07-23T22:45:24.360Z,98504.34
2018-07-23T22:47:53.226Z,98505.24
2018-07-23T22:50:21.876Z,98508.06
2018-07-23T22:52:50.374Z,98504.39
2018-07-23T22:55:18.895Z,98498.08
2018-07-23T22:57:47.472Z,98494.70
2018-07-23T23:00:16.076Z,98496.89
2018-07-23T23:02:44.554Z,98495.10
2018-07-23T23:05:13.446Z,98491.25
2018-07-23T23:07:42.129Z,98497.29
2018-07-23T23:10:11.016Z,98496.27
2018-07-23T23:12:39.535Z,98495.08
2018-07-23T23:15:08.553Z,98497.36
2018-07-23T23:17:37.156Z,98488.34
2018-07-23T23:20:05.704Z,98485.09
2018-07-23T23:22:35.006Z,98484.69
2018-07-23T23:25:03.808Z,98484.22
2018-07-23T23:27:32.726Z,98486.25
2018-07-23T23:30:01.427Z,98483.92
2018-07-23T23:32:30.102Z,98490.92
2018-07-23T23:34:58.702Z,98488.47
2018-07-23T23:37:27.206Z,98488.66
2018-07-23T23:39:55.725Z,98481.29
2018-07-23T23:42:24.293Z,98485.94
2018-07-23T23:44:52.997Z,98483.97
2018-07-23T23:47:21.650Z,98483.66
2018-07-23T23:49:50.927Z,98478.48
2018-07-23T23:52:19.486Z,98478.22
2018-07-23T23:54:48.657Z,98479.48
2018-07-23T23:57:17.202Z,98484.20
2018-07-23T23:59:45.746Z,98476.72
